Time,TemperatureF,DewpointF,PressureIn,WindDirection,WindDirectionDegrees,WindSpeedMPH,WindSpeedGustMPH,Humidity,HourlyPrecipIn,Conditions,Clouds,dailyrainin,SolarRadiationWatts/m^2,SoftwareType,DateUTC
2013-03-22 00:00:00,27.8,26.0,29.92,West,263,1.5,13.5,93,0.00,,,0.00,0.00,VWS V14.01,2013-03-22 04:00:00,
2013-03-22 00:01:00,27.8,26.0,29.93,SW,223,4.5,4.5,93,0.00,,,0.00,0.00,VWS V14.01,2013-03-22 04:01:00,
2013-03-22 00:06:00,27.5,26.0,29.92,SW,232,1.5,9.0,94,0.00,,,0.00,0.00,VWS V14.01,2013-03-22 04:06:00,
2013-03-22 00:11:00,27.5,26.0,29.92,West,260,0.0,9.0,94,0.00,,,0.00,0.00,VWS V14.01,2013-03-22 04:11:00,
2013-03-22 00:15:00,28.5,26.5,29.92,WSW,257,3.0,13.5,92,0.00,,,0.00,0.00,VWS V14.01,2013-03-22 04:15:00,
2013-03-22 00:16:00,27.6,26.1,29.92,WSW,250,1.5,7.5,94,0.00,,,0.00,0.00,VWS V14.01,2013-03-22 04:16:00,
2013-03-22 00:21:00,27.5,26.0,29.92,WSW,254,3.0,13.5,94,0.00,,,0.00,0.00,VWS V14.01,2013-03-22 04:21:00,
2013-03-22 00:26:00,27.4,25.9,29.92,West,272,1.5,18.0,94,0.00,,,0.00,0.00,VWS V14.01,2013-03-22 04:26:00,
2013-03-22 00:30:00,28.3,26.0,29.92,West,281,4.5,12.0,91,0.00,,,0.00,0.00,VWS V14.01,2013-03-22 04:30:00,
2013-03-22 00:31:00,27.4,25.9,29.92,WNW,295,0.0,3.0,94,0.00,,,0.00,0.00,VWS V14.01,2013-03-22 04:31:00,
2013-03-22 00:36:00,27.4,25.9,29.92,WSW,237,1.5,10.5,94,0.00,,,0.00,0.00,VWS V14.01,2013-03-22 04:36:00,
2013-03-22 00:41:00,27.5,26.0,29.92,WSW,245,1.5,10.5,94,0.00,,,0.00,0.00,VWS V14.01,2013-03-22 04:41:00,
2013-03-22 00:45:00,28.3,26.3,29.92,West,281,4.5,10.5,92,0.00,,,0.00,0.00,VWS V14.01,2013-03-22 04:45:00,
2013-03-22 00:46:00,27.5,26.0,29.93,NE,37,3.0,6.0,94,0.00,,,0.00,0.00,VWS V14.01,2013-03-22 04:46:00,
2013-03-22 00:51:00,27.1,25.4,29.93,West,272,3.0,7.5,93,0.00,,,0.00,0.00,VWS V14.01,2013-03-22 04:51:00,
2013-03-22 00:56:00,26.5,24.8,29.93,WSW,250,3.0,7.5,93,0.00,,,0.00,0.00,VWS V14.01,2013-03-22 04:56:00,
2013-03-22 01:00:00,27.8,26.0,29.92,WSW,250,6.0,13.5,93,0.00,,,0.00,0.00,VWS V14.01,2013-03-22 05:00:00,
2013-03-22 01:01:00,26.3,24.6,29.93,WSW,257,0.0,1.5,93,0.00,,,0.00,0.00,VWS V14.01,2013-03-22 05:01:00,
2013-03-22 01:06:00,26.2,24.7,29.93,West,262,1.5,7.5,94,0.00,,,0.00,0.00,VWS V14.01,2013-03-22 05:06:00,
2013-03-22 01:11:00,26.1,24.6,29.93,WNW,285,3.0,7.5,94,0.00,,,0.00,0.00,VWS V14.01,2013-03-22 05:11:00,
2013-03-22 01:15:00,27.5,26.0,29.92,SW,232,3.0,13.5,94,0.00,,,0.00,0.00,VWS V14.01,2013-03-22 05:15:00,
2013-03-22 01:16:00,26.0,24.5,29.93,WNW,300,1.5,3.0,94,0.00,,,0.00,0.00,VWS V14.01,2013-03-22 05:16:00,
2013-03-22 01:21:00,26.0,24.5,29.93,NW,323,3.0,6.0,94,0.00,,,0.00,0.00,VWS V14.01,2013-03-22 05:21:00,
2013-03-22 01:26:00,25.8,24.1,29.93,WNW,297,1.5,7.5,93,0.00,,,0.00,0.00,VWS V14.01,2013-03-22 05:26:00,
2013-03-22 01:30:00,27.4,25.9,29.92,WSW,248,4.5,18.0,94,0.00,,,0.00,0.00,VWS V14.01,2013-03-22 05:30:00,
2013-03-22 01:31:00,25.7,24.2,29.93,WNW,302,3.0,3.0,94,0.00,,,0.00,0.00,VWS V14.01,2013-03-22 05:31:00,
2013-03-22 01:36:00,25.5,23.8,29.93,West,273,0.0,7.5,93,0.00,,,0.00,0.00,VWS V14.01,2013-03-22 05:36:00,
2013-03-22 01:42:00,25.3,23.6,29.93,WSW,245,1.5,7.5,93,0.00,,,0.00,0.00,VWS V14.01,2013-03-22 05:42:00,
2013-03-22 01:45:00,27.5,26.0,29.92,WNW,289,3.0,10.5,94,0.00,,,0.00,0.00,VWS V14.01,2013-03-22 05:45:00,
2013-03-22 01:47:00,25.4,23.9,29.93,West,280,0.0,1.5,94,0.00,,,0.00,0.00,VWS V14.01,2013-03-22 05:47:00,
2013-03-22 01:52:00,25.5,24.0,29.93,WNW,286,3.0,6.0,94,0.00,,,0.00,0.00,VWS V14.01,2013-03-22 05:52:00,
2013-03-22 01:57:00,26.1,24.9,29.93,West,271,3.0,9.0,95,0.00,,,0.00,0.00,VWS V14.01,2013-03-22 05:57:00,
2013-03-22 02:00:00,26.3,24.6,29.93,WSW,257,1.5,7.5,93,0.00,,,0.00,0.00,VWS V14.01,2013-03-22 06:00:00,
2013-03-22 02:02:00,26.3,24.8,29.93,SW,224,7.5,9.0,94,0.00,,,0.00,0.00,VWS V14.01,2013-03-22 06:02:00,
2013-03-22 02:07:00,26.3,24.8,29.93,WSW,237,7.5,9.0,94,0.00,,,0.00,0.00,VWS V14.01,2013-03-22 06:07:00,
2013-03-22 02:12:00,26.4,24.9,29.93,SW,228,4.5,9.0,94,0.00,,,0.00,0.00,VWS V14.01,2013-03-22 06:12:00,
2013-03-22 02:15:00,26.0,24.5,29.93,West,278,1.5,7.5,94,0.00,,,0.00,0.00,VWS V14.01,2013-03-22 06:15:00,
2013-03-22 02:17:00,26.5,25.0,29.93,West,262,1.5,4.5,94,0.00,,,0.00,0.00,VWS V14.01,2013-03-22 06:17:00,
2013-03-22 02:22:00,26.5,24.8,29.93,West,263,4.5,6.0,93,0.00,,,0.00,0.00,VWS V14.01,2013-03-22 06:22:00,
2013-03-22 02:27:00,26.5,24.8,29.93,WSW,243,3.0,6.0,93,0.00,,,0.00,0.00,VWS V14.01,2013-03-22 06:27:00,
2013-03-22 02:30:00,25.7,24.2,29.93,WNW,285,3.0,7.5,94,0.00,,,0.00,0.00,VWS V14.01,2013-03-22 06:30:00,
2013-03-22 02:32:00,26.7,25.0,29.93,West,271,3.0,7.5,93,0.00,,,0.00,0.00,VWS V14.01,2013-03-22 06:32:00,
2013-03-22 02:37:00,26.8,25.0,29.93,WSW,252,3.0,9.0,93,0.00,,,0.00,0.00,VWS V14.01,2013-03-22 06:37:00,
2013-03-22 02:42:00,26.9,25.1,29.92,West,264,1.5,9.0,93,0.00,,,0.00,0.00,VWS V14.01,2013-03-22 06:42:00,
2013-03-22 02:45:00,25.4,23.9,29.93,West,279,1.5,7.5,94,0.00,,,0.00,0.00,VWS V14.01,2013-03-22 06:45:00,
2013-03-22 02:47:00,27.0,25.0,29.93,West,276,1.5,9.0,92,0.00,,,0.00,0.00,VWS V14.01,2013-03-22 06:47:00,
2013-03-22 02:52:00,27.0,24.7,29.93,WSW,243,12.0,13.5,91,0.00,,,0.00,0.00,VWS V14.01,2013-03-22 06:52:00,
2013-03-22 02:57:00,26.9,24.6,29.93,WNW,291,1.5,13.5,91,0.00,,,0.00,0.00,VWS V14.01,2013-03-22 06:57:00,
2013-03-22 03:00:00,26.3,24.8,29.93,WSW,255,4.5,9.0,94,0.00,,,0.00,0.00,VWS V14.01,2013-03-22 07:00:00,
2013-03-22 03:02:00,26.9,24.6,29.93,WNW,286,1.5,3.0,91,0.00,,,0.00,0.00,VWS V14.01,2013-03-22 07:02:00,
2013-03-22 03:07:00,26.9,24.4,29.93,SW,232,1.5,7.5,90,0.00,,,0.00,0.00,VWS V14.01,2013-03-22 07:07:00,
2013-03-22 03:12:00,27.0,24.2,29.93,WNW,282,1.5,9.0,89,0.00,,,0.00,0.00,VWS V14.01,2013-03-22 07:12:00,
2013-03-22 03:15:00,26.5,25.0,29.93,WNW,284,1.5,9.0,94,0.00,,,0.00,0.00,VWS V14.01,2013-03-22 07:15:00,
2013-03-22 03:17:00,26.9,23.8,29.93,WNW,286,1.5,3.0,88,0.00,,,0.00,0.00,VWS V14.01,2013-03-22 07:17:00,
2013-03-22 03:22:00,26.9,24.1,29.93,West,259,3.0,12.0,89,0.00,,,0.00,0.00,VWS V14.01,2013-03-22 07:22:00,
2013-03-22 03:27:00,26.7,24.2,29.93,West,277,3.0,12.0,90,0.00,,,0.00,0.00,VWS V14.01,2013-03-22 07:27:00,
2013-03-22 03:30:00,26.6,24.9,29.93,West,274,4.5,10.5,93,0.00,,,0.00,0.00,VWS V14.01,2013-03-22 07:30:00,
2013-03-22 03:32:00,26.4,24.1,29.93,WSW,240,4.5,6.0,91,0.00,,,0.00,0.00,VWS V14.01,2013-03-22 07:32:00,
2013-03-22 03:37:00,26.3,24.0,29.93,SW,235,3.0,6.0,91,0.00,,,0.00,0.00,VWS V14.01,2013-03-22 07:37:00,
2013-03-22 03:42:00,26.3,23.8,29.93,WSW,249,1.5,7.5,90,0.00,,,0.00,0.00,VWS V14.01,2013-03-22 07:42:00,
2013-03-22 03:45:00,27.0,25.2,29.93,NW,316,3.0,9.0,93,0.00,,,0.00,0.00,VWS V14.01,2013-03-22 07:45:00,
2013-03-22 03:47:00,26.5,24.2,29.93,West,274,1.5,9.0,91,0.00,,,0.00,0.00,VWS V14.01,2013-03-22 07:47:00,
2013-03-22 03:52:00,26.6,24.1,29.93,WSW,256,1.5,9.0,90,0.00,,,0.00,0.00,VWS V14.01,2013-03-22 07:52:00,
2013-03-22 03:57:00,26.6,23.8,29.93,South,176,1.5,9.0,89,0.00,,,0.00,0.00,VWS V14.01,2013-03-22 07:57:00,
2013-03-22 04:00:00,26.9,24.6,29.93,SW,218,3.0,13.5,91,0.00,,,0.00,0.00,VWS V14.01,2013-03-22 08:00:00,
2013-03-22 04:02:00,26.7,23.6,29.93,West,278,1.5,3.0,88,0.00,,,0.00,0.00,VWS V14.01,2013-03-22 08:02:00,
2013-03-22 04:07:00,26.7,23.6,29.93,West,268,1.5,9.0,88,0.00,,,0.00,0.00,VWS V14.01,2013-03-22 08:07:00,
2013-03-22 04:12:00,26.7,23.4,29.93,SW,219,1.5,9.0,87,0.00,,,0.00,0.00,VWS V14.01,2013-03-22 08:12:00,
2013-03-22 04:15:00,27.0,23.9,29.92,SW,226,3.0,9.0,88,0.00,,,0.00,0.00,VWS V14.01,2013-03-22 08:15:00,
2013-03-22 04:17:00,26.6,23.5,29.93,WSW,255,0.0,4.5,88,0.00,,,0.00,0.00,VWS V14.01,2013-03-22 08:17:00,
2013-03-22 04:22:00,26.7,23.6,29.93,SW,232,3.0,10.5,88,0.00,,,0.00,0.00,VWS V14.01,2013-03-22 08:22:00,
2013-03-22 04:27:00,26.7,23.4,29.93,West,270,1.5,10.5,87,0.00,,,0.00,0.00,VWS V14.01,2013-03-22 08:27:00,
2013-03-22 04:30:00,26.5,24.0,29.93,WSW,250,1.5,12.0,90,0.00,,,0.00,0.00,VWS V14.01,2013-03-22 08:30:00,
2013-03-22 04:32:00,26.7,23.4,29.93,WNW,294,3.0,3.0,87,0.00,,,0.00,0.00,VWS V14.01,2013-03-22 08:32:00,
2013-03-22 04:37:00,26.7,23.1,29.93,West,262,1.5,10.5,86,0.00,,,0.00,0.00,VWS V14.01,2013-03-22 08:37:00,
2013-03-22 04:42:00,26.7,23.1,29.93,WNW,293,1.5,10.5,86,0.00,,,0.00,0.00,VWS V14.01,2013-03-22 08:42:00,
2013-03-22 04:45:00,26.5,24.0,29.93,WSW,245,9.0,9.0,90,0.00,,,0.00,0.00,VWS V14.01,2013-03-22 08:45:00,
2013-03-22 04:47:00,26.7,22.5,29.93,WNW,285,1.5,1.5,84,0.00,,,0.00,0.00,VWS V14.01,2013-03-22 08:47:00,
2013-03-22 04:52:00,26.7,22.2,29.93,West,263,4.5,7.5,83,0.00,,,0.00,0.00,VWS V14.01,2013-03-22 08:52:00,
2013-03-22 04:57:00,26.8,21.8,29.93,SW,231,0.0,7.5,81,0.00,,,0.00,0.00,VWS V14.01,2013-03-22 08:57:00,
2013-03-22 05:00:00,26.7,23.6,29.93,WSW,250,3.0,9.0,88,0.00,,,0.00,0.00,VWS V14.01,2013-03-22 09:00:00,
2013-03-22 05:02:00,26.8,21.8,29.93,WNW,300,1.5,6.0,81,0.00,,,0.00,0.00,VWS V14.01,2013-03-22 09:02:00,
2013-03-22 05:07:00,26.8,22.3,29.93,WNW,287,4.5,9.0,83,0.00,,,0.00,0.00,VWS V14.01,2013-03-22 09:07:00,
2013-03-22 05:12:00,26.9,22.7,29.93,West,274,6.0,9.0,84,0.00,,,0.00,0.00,VWS V14.01,2013-03-22 09:12:00,
2013-03-22 05:15:00,26.6,23.5,29.93,WSW,244,3.0,9.0,88,0.00,,,0.00,0.00,VWS V14.01,2013-03-22 09:15:00,
2013-03-22 05:17:00,26.8,22.6,29.93,SSW,198,1.5,1.5,84,0.00,,,0.00,0.00,VWS V14.01,2013-03-22 09:17:00,
2013-03-22 05:22:00,26.8,22.3,29.93,West,278,1.5,4.5,83,0.00,,,0.00,0.00,VWS V14.01,2013-03-22 09:22:00,
2013-03-22 05:27:00,26.7,22.5,29.93,WSW,255,1.5,6.0,84,0.00,,,0.00,0.00,VWS V14.01,2013-03-22 09:27:00,
2013-03-22 05:30:00,26.7,23.4,29.93,West,278,1.5,10.5,87,0.00,,,0.00,0.00,VWS V14.01,2013-03-22 09:30:00,
2013-03-22 05:32:00,26.5,22.6,29.94,SW,233,0.0,1.5,85,0.00,,,0.00,0.00,VWS V14.01,2013-03-22 09:32:00,
2013-03-22 05:37:00,26.4,22.5,29.94,WSW,254,3.0,7.5,85,0.00,,,0.00,0.00,VWS V14.01,2013-03-22 09:37:00,
2013-03-22 05:42:00,26.3,22.1,29.94,West,278,3.0,12.0,84,0.00,,,0.00,0.00,VWS V14.01,2013-03-22 09:42:00,
2013-03-22 05:45:00,26.7,22.5,29.93,WSW,255,1.5,10.5,84,0.00,,,0.00,0.00,VWS V14.01,2013-03-22 09:45:00,
2013-03-22 05:47:00,26.3,22.4,29.93,WNW,283,1.5,7.5,85,0.00,,,0.00,0.00,VWS V14.01,2013-03-22 09:47:00,
2013-03-22 05:52:00,26.5,22.9,29.94,West,261,1.5,7.5,86,0.00,,,0.00,0.00,VWS V14.01,2013-03-22 09:52:00,
2013-03-22 05:57:00,26.5,22.9,29.94,West,261,3.0,12.0,86,0.00,,,0.00,0.00,VWS V14.01,2013-03-22 09:57:00,
2013-03-22 06:00:00,26.7,21.7,29.93,WNW,287,3.0,7.5,81,0.00,,,0.00,0.00,VWS V14.01,2013-03-22 10:00:00,
2013-03-22 06:02:00,26.5,21.8,29.94,NW,307,3.0,10.5,82,0.00,,,0.00,0.00,VWS V14.01,2013-03-22 10:02:00,
2013-03-22 06:07:00,26.5,21.8,29.94,WSW,245,1.5,10.5,82,0.00,,,0.00,0.00,VWS V14.01,2013-03-22 10:07:00,
2013-03-22 06:12:00,26.6,21.6,29.94,NW,320,3.0,10.5,81,0.00,,,0.00,0.00,VWS V14.01,2013-03-22 10:12:00,
2013-03-22 06:15:00,26.9,22.7,29.93,WNW,285,0.0,9.0,84,0.00,,,0.00,0.00,VWS V14.01,2013-03-22 10:15:00,
2013-03-22 06:17:00,26.6,21.6,29.94,West,265,1.5,6.0,81,0.00,,,0.00,0.00,VWS V14.01,2013-03-22 10:17:00,
2013-03-22 06:22:00,26.6,21.3,29.95,WNW,300,1.5,9.0,80,0.00,,,0.00,0.00,VWS V14.01,2013-03-22 10:22:00,
2013-03-22 06:27:00,26.7,21.7,29.95,WNW,300,6.0,10.5,81,0.00,,,0.00,0.00,VWS V14.01,2013-03-22 10:27:00,
2013-03-22 06:30:00,26.6,22.7,29.94,West,277,1.5,6.0,85,0.00,,,0.00,0.00,VWS V14.01,2013-03-22 10:30:00,
2013-03-22 06:32:00,26.7,21.7,29.95,West,266,3.0,6.0,81,0.00,,,0.00,0.00,VWS V14.01,2013-03-22 10:32:00,
2013-03-22 06:37:00,26.6,21.9,29.95,NW,314,1.5,7.5,82,0.00,,,0.00,0.00,VWS V14.01,2013-03-22 10:37:00,
2013-03-22 06:42:00,26.6,21.3,29.95,WNW,292,1.5,9.0,80,0.00,,,0.00,0.00,VWS V14.01,2013-03-22 10:42:00,
2013-03-22 06:45:00,26.3,22.4,29.94,WNW,290,4.5,12.0,85,0.00,,,0.00,0.00,VWS V14.01,2013-03-22 10:45:00,
2013-03-22 06:47:00,26.7,21.7,29.96,West,276,6.0,7.5,81,0.00,,,0.00,0.00,VWS V14.01,2013-03-22 10:47:00,
2013-03-22 06:52:00,26.7,21.4,29.96,WNW,290,3.0,7.5,80,0.00,,,0.00,0.00,VWS V14.01,2013-03-22 10:52:00,
2013-03-22 06:57:00,26.7,21.4,29.96,West,262,1.5,7.5,80,0.00,,,0.00,0.00,VWS V14.01,2013-03-22 10:57:00,
2013-03-22 07:00:00,26.5,22.0,29.94,West,280,4.5,12.0,83,0.00,,,0.00,0.00,VWS V14.01,2013-03-22 11:00:00,
2013-03-22 07:02:00,26.7,21.1,29.96,WNW,299,3.0,6.0,79,0.00,,,0.00,0.00,VWS V14.01,2013-03-22 11:02:00,
2013-03-22 07:07:00,26.7,20.8,29.96,West,276,3.0,7.5,78,0.00,,,0.00,0.00,VWS V14.01,2013-03-22 11:07:00,
2013-03-22 07:12:00,26.7,20.5,29.97,NW,324,1.5,7.5,77,0.00,,,0.00,0.00,VWS V14.01,2013-03-22 11:12:00,
2013-03-22 07:15:00,26.6,21.6,29.94,WSW,249,4.5,10.5,81,0.00,,,0.00,0.00,VWS V14.01,2013-03-22 11:15:00,
2013-03-22 07:17:00,26.6,20.4,29.97,WSW,252,0.0,4.5,77,0.00,,,0.00,0.00,VWS V14.01,2013-03-22 11:17:00,
2013-03-22 07:22:00,26.6,20.1,29.97,WNW,298,3.0,9.0,76,0.00,,,0.00,0.00,VWS V14.01,2013-03-22 11:22:00,
2013-03-22 07:27:00,26.5,19.7,29.97,NW,308,1.5,9.0,75,0.00,,,0.00,0.00,VWS V14.01,2013-03-22 11:27:00,
2013-03-22 07:30:00,26.7,21.4,29.95,WNW,302,3.0,12.0,80,0.00,,,0.00,0.00,VWS V14.01,2013-03-22 11:30:00,
2013-03-22 07:32:00,26.5,20.3,29.97,West,278,1.5,9.0,77,0.00,,,0.00,0.00,VWS V14.01,2013-03-22 11:32:00,
2013-03-22 07:37:00,26.4,20.8,29.98,West,274,1.5,9.0,79,0.00,,,0.00,0.00,VWS V14.01,2013-03-22 11:37:00,
2013-03-22 07:42:00,26.4,20.2,29.98,WSW,244,0.0,9.0,77,0.00,,,0.00,0.00,VWS V14.01,2013-03-22 11:42:00,
2013-03-22 07:45:00,26.7,21.7,29.95,West,278,3.0,9.0,81,0.00,,,0.00,0.00,VWS V14.01,2013-03-22 11:45:00,
2013-03-22 07:47:00,26.5,20.3,29.98,WNW,289,1.5,3.0,77,0.00,,,0.00,0.00,VWS V14.01,2013-03-22 11:47:00,
2013-03-22 07:52:00,26.5,20.6,29.98,West,276,1.5,3.0,78,0.00,,,0.00,0.00,VWS V14.01,2013-03-22 11:52:00,
2013-03-22 07:57:00,26.5,20.9,29.98,WSW,248,0.0,3.0,79,0.00,,,0.00,0.00,VWS V14.01,2013-03-22 11:57:00,
2013-03-22 08:00:00,26.7,21.1,29.96,WSW,257,3.0,10.5,79,0.00,,,0.00,0.00,VWS V14.01,2013-03-22 12:00:00,
2013-03-22 08:02:00,26.5,20.6,29.98,WNW,297,4.5,4.5,78,0.00,,,0.00,0.00,VWS V14.01,2013-03-22 12:02:00,
2013-03-22 08:07:00,26.4,20.8,29.98,WSW,250,1.5,4.5,79,0.00,,,0.00,0.00,VWS V14.01,2013-03-22 12:07:00,
2013-03-22 08:12:00,26.5,20.9,29.98,WNW,301,3.0,10.5,79,0.00,,,0.00,0.00,VWS V14.01,2013-03-22 12:12:00,
2013-03-22 08:15:00,26.6,20.4,29.97,WSW,248,6.0,12.0,77,0.00,,,0.00,0.00,VWS V14.01,2013-03-22 12:15:00,
2013-03-22 08:17:00,26.5,20.3,29.98,West,260,1.5,9.0,77,0.00,,,0.00,0.00,VWS V14.01,2013-03-22 12:17:00,
2013-03-22 08:22:00,26.6,19.8,29.99,WNW,285,3.0,10.5,75,0.00,,,0.00,0.00,VWS V14.01,2013-03-22 12:22:00,
2013-03-22 08:27:00,26.7,19.5,29.99,WSW,256,1.5,10.5,74,0.00,,,0.00,0.00,VWS V14.01,2013-03-22 12:27:00,
2013-03-22 08:30:00,26.5,20.3,29.97,West,266,4.5,9.0,77,0.00,,,0.00,0.00,VWS V14.01,2013-03-22 12:30:00,
2013-03-22 08:32:00,26.7,19.9,29.99,WSW,253,3.0,3.0,75,0.00,,,0.00,0.00,VWS V14.01,2013-03-22 12:32:00,
2013-03-22 08:37:00,26.7,20.5,29.99,West,267,4.5,7.5,77,0.00,,,0.00,0.00,VWS V14.01,2013-03-22 12:37:00,
2013-03-22 08:42:00,26.6,21.0,29.99,WNW,300,3.0,7.5,79,0.00,,,0.00,0.00,VWS V14.01,2013-03-22 12:42:00,
2013-03-22 08:45:00,26.5,20.0,29.98,WNW,297,1.5,9.0,76,0.00,,,0.00,0.00,VWS V14.01,2013-03-22 12:45:00,
2013-03-22 08:47:00,26.5,20.6,29.99,West,274,1.5,1.5,78,0.00,,,0.00,0.00,VWS V14.01,2013-03-22 12:47:00,
2013-03-22 08:52:00,26.6,20.7,29.99,SSW,212,1.5,6.0,78,0.00,,,0.00,0.00,VWS V14.01,2013-03-22 12:52:00,
2013-03-22 08:57:00,26.6,20.4,29.99,WSW,248,1.5,6.0,77,0.00,,,0.00,0.00,VWS V14.01,2013-03-22 12:57:00,
2013-03-22 09:00:00,26.5,20.9,29.98,WNW,283,1.5,12.0,79,0.00,,,0.00,0.00,VWS V14.01,2013-03-22 13:00:00,
2013-03-22 09:02:00,26.6,20.4,29.99,West,278,6.0,9.0,77,0.00,,,0.00,0.00,VWS V14.01,2013-03-22 13:02:00,
2013-03-22 09:07:00,26.6,20.1,29.99,WSW,252,0.0,9.0,76,0.00,,,0.00,0.00,VWS V14.01,2013-03-22 13:07:00,
2013-03-22 09:12:00,26.7,20.2,29.99,NW,319,1.5,9.0,76,0.00,,,0.00,0.00,VWS V14.01,2013-03-22 13:12:00,
2013-03-22 09:15:00,26.5,20.3,29.98,SW,229,3.0,10.5,77,0.00,,,0.00,0.00,VWS V14.01,2013-03-22 13:15:00,
2013-03-22 09:17:00,26.8,20.0,29.99,West,264,3.0,6.0,75,0.00,,,0.00,0.00,VWS V14.01,2013-03-22 13:17:00,
2013-03-22 09:22:00,26.9,20.4,29.99,WSW,254,4.5,9.0,76,0.00,,,0.00,0.00,VWS V14.01,2013-03-22 13:22:00,
2013-03-22 09:27:00,26.9,20.7,29.99,NW,326,3.0,9.0,77,0.00,,,0.00,0.00,VWS V14.01,2013-03-22 13:27:00,
2013-03-22 09:30:00,26.7,19.5,29.99,WSW,243,3.0,10.5,74,0.00,,,0.00,0.00,VWS V14.01,2013-03-22 13:30:00,
2013-03-22 09:32:00,26.9,21.0,29.99,West,271,1.5,4.5,78,0.00,,,0.00,0.00,VWS V14.01,2013-03-22 13:32:00,
2013-03-22 09:37:00,27.0,20.8,29.99,West,261,0.0,9.0,77,0.00,,,0.00,0.00,VWS V14.01,2013-03-22 13:37:00,
2013-03-22 09:42:00,27.1,20.9,29.99,WNW,299,3.0,9.0,77,0.00,,,0.00,0.00,VWS V14.01,2013-03-22 13:42:00,
2013-03-22 09:45:00,26.5,20.6,29.99,West,269,0.0,9.0,78,0.00,,,0.00,0.00,VWS V14.01,2013-03-22 13:45:00,
2013-03-22 09:47:00,27.2,21.0,29.99,WSW,258,3.0,4.5,77,0.00,,,0.00,0.00,VWS V14.01,2013-03-22 13:47:00,
2013-03-22 09:52:00,27.4,20.8,29.99,NNW,336,1.5,6.0,76,0.00,,,0.00,0.00,VWS V14.01,2013-03-22 13:52:00,
2013-03-22 09:57:00,27.5,20.9,29.99,WNW,292,6.0,10.5,76,0.00,,,0.00,0.00,VWS V14.01,2013-03-22 13:57:00,
2013-03-22 10:00:00,26.6,20.4,29.99,WNW,294,3.0,7.5,77,0.00,,,0.00,0.00,VWS V14.01,2013-03-22 14:00:00,
2013-03-22 10:02:00,27.5,20.9,29.99,West,270,1.5,3.0,76,0.00,,,0.00,0.00,VWS V14.01,2013-03-22 14:02:00,
2013-03-22 10:07:00,27.7,21.1,29.99,WNW,287,1.5,6.0,76,0.00,,,0.00,0.00,VWS V14.01,2013-03-22 14:07:00,
2013-03-22 10:12:00,27.7,20.8,29.99,NW,316,0.0,9.0,75,0.00,,,0.00,0.00,VWS V14.01,2013-03-22 14:12:00,
2013-03-22 10:15:00,26.8,20.3,29.99,West,274,1.5,9.0,76,0.00,,,0.00,0.00,VWS V14.01,2013-03-22 14:15:00,
2013-03-22 10:17:00,27.7,20.8,29.99,West,266,1.5,6.0,75,0.00,,,0.00,0.00,VWS V14.01,2013-03-22 14:17:00,
2013-03-22 10:22:00,27.7,20.8,30.00,West,280,1.5,6.0,75,0.00,,,0.00,0.00,VWS V14.01,2013-03-22 14:22:00,
2013-03-22 10:27:00,27.7,21.1,30.00,West,266,3.0,6.0,76,0.00,,,0.00,0.00,VWS V14.01,2013-03-22 14:27:00,
2013-03-22 10:30:00,26.9,21.0,29.99,WNW,292,0.0,9.0,78,0.00,,,0.00,0.00,VWS V14.01,2013-03-22 14:30:00,
2013-03-22 10:32:00,27.6,21.4,30.00,WSW,251,0.0,1.5,77,0.00,,,0.00,0.00,VWS V14.01,2013-03-22 14:32:00,
2013-03-22 10:37:00,27.6,21.4,30.00,West,274,0.0,4.5,77,0.00,,,0.00,0.00,VWS V14.01,2013-03-22 14:37:00,
2013-03-22 10:42:00,27.5,21.9,30.00,WSW,256,4.5,7.5,79,0.00,,,0.00,0.00,VWS V14.01,2013-03-22 14:42:00,
2013-03-22 10:45:00,27.1,20.9,29.99,SW,234,1.5,9.0,77,0.00,,,0.00,0.00,VWS V14.01,2013-03-22 14:45:00,
2013-03-22 10:47:00,27.4,21.8,30.00,West,270,0.0,7.5,79,0.00,,,0.00,0.00,VWS V14.01,2013-03-22 14:47:00,
2013-03-22 10:52:00,27.3,22.0,30.00,West,262,0.0,7.5,80,0.00,,,0.00,0.00,VWS V14.01,2013-03-22 14:52:00,
2013-03-22 10:57:00,27.3,22.2,30.00,SW,219,4.5,7.5,81,0.00,,,0.00,0.00,VWS V14.01,2013-03-22 14:57:00,
2013-03-22 11:00:00,27.4,20.8,29.99,WSW,241,4.5,10.5,76,0.00,,,0.00,0.00,VWS V14.01,2013-03-22 15:00:00,
2013-03-22 11:02:00,27.2,21.9,30.00,WSW,254,3.0,3.0,80,0.00,,,0.00,0.00,VWS V14.01,2013-03-22 15:02:00,
2013-03-22 11:07:00,27.3,22.0,30.00,WSW,250,1.5,12.0,80,0.00,,,0.00,0.00,VWS V14.01,2013-03-22 15:07:00,
2013-03-22 11:12:00,27.3,21.7,30.00,West,264,1.5,12.0,79,0.00,,,0.00,0.00,VWS V14.01,2013-03-22 15:12:00,
2013-03-22 11:15:00,27.7,21.1,29.99,West,264,0.0,9.0,76,0.00,,,0.00,0.00,VWS V14.01,2013-03-22 15:15:00,
2013-03-22 11:17:00,27.4,21.8,30.00,WNW,295,1.5,3.0,79,0.00,,,0.00,0.00,VWS V14.01,2013-03-22 15:17:00,
2013-03-22 11:22:00,27.5,21.9,30.00,West,264,1.5,3.0,79,0.00,,,0.00,0.00,VWS V14.01,2013-03-22 15:22:00,
2013-03-22 11:27:00,27.6,22.0,30.00,WSW,253,6.0,6.0,79,0.00,,,0.00,0.00,VWS V14.01,2013-03-22 15:27:00,
2013-03-22 11:30:00,27.7,21.4,30.00,WSW,258,1.5,6.0,77,0.00,,,0.00,0.00,VWS V14.01,2013-03-22 15:30:00,
2013-03-22 11:32:00,27.5,21.5,30.00,West,270,3.0,4.5,78,0.00,,,0.00,0.00,VWS V14.01,2013-03-22 15:32:00,
2013-03-22 11:37:00,27.5,21.5,30.00,NW,316,3.0,9.0,78,0.00,,,0.00,0.00,VWS V14.01,2013-03-22 15:37:00,
2013-03-22 11:42:00,27.5,21.9,30.00,SW,225,3.0,9.0,79,0.00,,,0.00,0.00,VWS V14.01,2013-03-22 15:42:00,
2013-03-22 11:45:00,27.4,21.8,30.00,NW,307,1.5,7.5,79,0.00,,,0.00,0.00,VWS V14.01,2013-03-22 15:45:00,
2013-03-22 11:47:00,27.6,21.6,30.01,West,268,1.5,6.0,78,0.00,,,0.00,0.00,VWS V14.01,2013-03-22 15:47:00,
2013-03-22 11:52:00,27.7,21.4,30.01,WSW,246,3.0,6.0,77,0.00,,,0.00,0.00,VWS V14.01,2013-03-22 15:52:00,
2013-03-22 11:57:00,27.6,21.4,30.01,West,272,1.5,6.0,77,0.00,,,0.00,0.00,VWS V14.01,2013-03-22 15:57:00,
2013-03-22 12:00:00,27.2,21.9,30.00,SW,224,1.5,7.5,80,0.00,,,0.00,0.00,VWS V14.01,2013-03-22 16:00:00,
2013-03-22 12:02:00,27.6,21.4,30.01,West,273,3.0,4.5,77,0.00,,,0.00,0.00,VWS V14.01,2013-03-22 16:02:00,
2013-03-22 12:07:00,27.6,21.4,30.01,WSW,237,1.5,6.0,77,0.00,,,0.00,0.00,VWS V14.01,2013-03-22 16:07:00,
2013-03-22 12:12:00,27.8,21.5,30.01,West,268,1.5,6.0,77,0.00,,,0.00,0.00,VWS V14.01,2013-03-22 16:12:00,
2013-03-22 12:15:00,27.4,22.0,30.00,SW,221,1.5,12.0,80,0.00,,,0.00,0.00,VWS V14.01,2013-03-22 16:15:00,
2013-03-22 12:17:00,28.2,21.9,30.01,SW,231,0.0,4.5,77,0.00,,,0.00,0.00,VWS V14.01,2013-03-22 16:17:00,
2013-03-22 12:22:00,28.5,21.9,30.01,West,262,1.5,4.5,76,0.00,,,0.00,0.00,VWS V14.01,2013-03-22 16:22:00,
2013-03-22 12:27:00,28.8,21.6,30.01,WNW,285,0.0,6.0,74,0.00,,,0.00,0.00,VWS V14.01,2013-03-22 16:27:00,
2013-03-22 12:30:00,27.5,21.5,30.00,West,279,3.0,6.0,78,0.00,,,0.00,0.00,VWS V14.01,2013-03-22 16:30:00,
2013-03-22 12:32:00,28.9,21.7,30.01,WSW,254,3.0,3.0,74,0.00,,,0.00,0.00,VWS V14.01,2013-03-22 16:32:00,
2013-03-22 12:37:00,28.9,21.7,30.01,WNW,303,1.5,10.5,74,0.00,,,0.00,0.00,VWS V14.01,2013-03-22 16:37:00,
2013-03-22 12:42:00,28.8,22.5,30.01,WSW,253,1.5,10.5,77,0.00,,,0.00,0.00,VWS V14.01,2013-03-22 16:42:00,
2013-03-22 12:45:00,27.6,22.0,30.01,WSW,243,1.5,9.0,79,0.00,,,0.00,0.00,VWS V14.01,2013-03-22 16:45:00,
2013-03-22 12:47:00,28.9,22.3,30.01,West,269,0.0,3.0,76,0.00,,,0.00,0.00,VWS V14.01,2013-03-22 16:47:00,
2013-03-22 12:52:00,29.1,22.2,30.01,NW,317,0.0,7.5,75,0.00,,,0.00,0.00,VWS V14.01,2013-03-22 16:52:00,
2013-03-22 12:57:00,29.2,22.0,30.01,West,273,1.5,7.5,74,0.00,,,0.00,0.00,VWS V14.01,2013-03-22 16:57:00,
2013-03-22 13:00:00,27.6,21.4,30.01,WSW,241,1.5,7.5,77,0.00,,,0.00,0.00,VWS V14.01,2013-03-22 17:00:00,
2013-03-22 13:02:00,29.4,22.1,30.01,SW,226,3.0,3.0,74,0.00,,,0.00,0.00,VWS V14.01,2013-03-22 17:02:00,
2013-03-22 13:07:00,29.4,21.5,30.01,WNW,285,1.5,9.0,72,0.00,,,0.00,0.00,VWS V14.01,2013-03-22 17:07:00,
2013-03-22 13:12:00,29.6,21.4,30.01,WSW,257,3.0,9.0,71,0.00,,,0.00,0.00,VWS V14.01,2013-03-22 17:12:00,
2013-03-22 13:15:00,28.1,21.8,30.01,West,263,0.0,6.0,77,0.00,,,0.00,0.00,VWS V14.01,2013-03-22 17:15:00,
2013-03-22 13:17:00,29.5,20.9,30.01,WSW,255,1.5,3.0,70,0.00,,,0.00,0.00,VWS V14.01,2013-03-22 17:17:00,
2013-03-22 13:22:00,29.7,21.1,30.01,WSW,242,1.5,15.0,70,0.00,,,0.00,0.00,VWS V14.01,2013-03-22 17:22:00,
2013-03-22 13:27:00,29.7,21.1,30.01,WSW,245,3.0,15.0,70,0.00,,,0.00,0.00,VWS V14.01,2013-03-22 17:27:00,
2013-03-22 13:30:00,28.9,21.4,30.01,West,277,1.5,6.0,73,0.00,,,0.00,0.00,VWS V14.01,2013-03-22 17:30:00,
2013-03-22 13:32:00,29.5,21.3,30.01,West,265,4.5,7.5,71,0.00,,,0.00,0.00,VWS V14.01,2013-03-22 17:32:00,
2013-03-22 13:37:00,29.2,21.3,30.02,West,260,0.0,7.5,72,0.00,,,0.00,0.00,VWS V14.01,2013-03-22 17:37:00,
2013-03-22 13:42:00,29.1,21.2,30.02,West,262,1.5,7.5,72,0.00,,,0.00,0.00,VWS V14.01,2013-03-22 17:42:00,
2013-03-22 13:45:00,28.9,22.3,30.01,West,275,0.0,10.5,76,0.00,,,0.00,0.00,VWS V14.01,2013-03-22 17:45:00,
2013-03-22 13:47:00,28.8,21.2,30.02,West,268,3.0,3.0,73,0.00,,,0.00,0.00,VWS V14.01,2013-03-22 17:47:00,
2013-03-22 13:52:00,28.8,21.6,30.02,SW,233,1.5,6.0,74,0.00,,,0.00,0.00,VWS V14.01,2013-03-22 17:52:00,
2013-03-22 13:57:00,29.1,21.9,30.02,West,263,0.0,7.5,74,0.00,,,0.00,0.00,VWS V14.01,2013-03-22 17:57:00,
2013-03-22 14:00:00,29.3,21.7,30.01,WNW,286,1.5,7.5,73,0.00,,,0.00,0.00,VWS V14.01,2013-03-22 18:00:00,
2013-03-22 14:02:00,29.3,21.4,30.02,West,271,1.5,10.5,72,0.00,,,0.00,0.00,VWS V14.01,2013-03-22 18:02:00,
2013-03-22 14:07:00,29.1,21.5,30.02,WNW,298,1.5,10.5,73,0.00,,,0.00,0.00,VWS V14.01,2013-03-22 18:07:00,
2013-03-22 14:12:00,29.0,21.4,30.02,WSW,258,1.5,10.5,73,0.00,,,0.00,0.00,VWS V14.01,2013-03-22 18:12:00,
2013-03-22 14:15:00,29.5,20.6,30.01,SW,234,0.0,9.0,69,0.00,,,0.00,0.00,VWS V14.01,2013-03-22 18:15:00,
2013-03-22 14:17:00,28.8,21.6,30.02,West,264,0.0,3.0,74,0.00,,,0.00,0.00,VWS V14.01,2013-03-22 18:17:00,
2013-03-22 14:22:00,28.7,21.8,30.02,West,269,1.5,7.5,75,0.00,,,0.00,0.00,VWS V14.01,2013-03-22 18:22:00,
2013-03-22 14:27:00,28.8,21.9,30.02,WNW,290,0.0,7.5,75,0.00,,,0.00,0.00,VWS V14.01,2013-03-22 18:27:00,
2013-03-22 14:30:00,29.6,21.0,30.01,West,259,3.0,15.0,70,0.00,,,0.00,0.00,VWS V14.01,2013-03-22 18:30:00,
2013-03-22 14:32:00,29.0,22.1,30.02,WSW,246,0.0,1.5,75,0.00,,,0.00,0.00,VWS V14.01,2013-03-22 18:32:00,
2013-03-22 14:37:00,29.2,22.3,30.02,SW,228,1.5,4.5,75,0.00,,,0.00,0.00,VWS V14.01,2013-03-22 18:37:00,
2013-03-22 14:42:00,29.5,22.2,30.02,West,275,1.5,7.5,74,0.00,,,0.00,0.00,VWS V14.01,2013-03-22 18:42:00,
2013-03-22 14:45:00,28.8,21.2,30.02,West,272,1.5,7.5,73,0.00,,,0.00,0.00,VWS V14.01,2013-03-22 18:45:00,
2013-03-22 14:47:00,29.7,22.1,30.01,West,276,3.0,7.5,73,0.00,,,0.00,0.00,VWS V14.01,2013-03-22 18:47:00,
2013-03-22 14:52:00,29.8,21.6,30.02,SW,235,3.0,7.5,71,0.00,,,0.00,0.00,VWS V14.01,2013-03-22 18:52:00,
2013-03-22 14:57:00,29.9,21.3,30.02,West,268,3.0,10.5,70,0.00,,,0.00,0.00,VWS V14.01,2013-03-22 18:57:00,
2013-03-22 15:00:00,29.4,21.8,30.02,WSW,245,3.0,9.0,73,0.00,,,0.00,0.00,VWS V14.01,2013-03-22 19:00:00,
2013-03-22 15:02:00,30.0,21.8,30.02,WNW,285,1.5,13.5,71,0.00,,,0.00,0.00,VWS V14.01,2013-03-22 19:02:00,
2013-03-22 15:07:00,29.9,21.7,30.02,WNW,283,3.0,13.5,71,0.00,,,0.00,0.00,VWS V14.01,2013-03-22 19:07:00,
2013-03-22 15:12:00,30.1,22.2,30.02,SW,217,6.0,13.5,72,0.00,,,0.00,0.00,VWS V14.01,2013-03-22 19:12:00,
2013-03-22 15:15:00,28.9,21.7,30.02,NW,304,3.0,10.5,74,0.00,,,0.00,0.00,VWS V14.01,2013-03-22 19:15:00,
2013-03-22 15:17:00,30.4,22.5,30.02,West,261,1.5,6.0,72,0.00,,,0.00,0.00,VWS V14.01,2013-03-22 19:17:00,
2013-03-22 15:22:00,30.8,22.9,30.02,SW,224,1.5,6.0,72,0.00,,,0.00,0.00,VWS V14.01,2013-03-22 19:22:00,
2013-03-22 15:27:00,30.9,22.6,30.02,WNW,288,4.5,12.0,71,0.00,,,0.00,0.00,VWS V14.01,2013-03-22 19:27:00,
2013-03-22 15:30:00,28.9,21.7,30.02,West,264,1.5,9.0,74,0.00,,,0.00,0.00,VWS V14.01,2013-03-22 19:30:00,
2013-03-22 15:32:00,31.0,22.7,30.02,SW,236,6.0,6.0,71,0.00,,,0.00,0.00,VWS V14.01,2013-03-22 19:32:00,
2013-03-22 15:37:00,31.0,22.7,30.02,NNW,342,3.0,9.0,71,0.00,,,0.00,0.00,VWS V14.01,2013-03-22 19:37:00,
2013-03-22 15:42:00,31.0,22.7,30.02,WSW,248,3.0,9.0,71,0.00,,,0.00,0.00,VWS V14.01,2013-03-22 19:42:00,
2013-03-22 15:45:00,29.6,22.0,30.02,West,281,1.5,7.5,73,0.00,,,0.00,0.00,VWS V14.01,2013-03-22 19:45:00,
2013-03-22 15:47:00,31.2,22.6,30.01,West,281,1.5,6.0,70,0.00,,,0.00,0.00,VWS V14.01,2013-03-22 19:47:00,
2013-03-22 15:52:00,31.4,22.8,30.01,West,259,0.0,6.0,70,0.00,,,0.00,0.00,VWS V14.01,2013-03-22 19:52:00,
2013-03-22 15:57:00,31.7,22.4,30.01,SW,234,3.0,6.0,68,0.00,,,0.00,0.00,VWS V14.01,2013-03-22 19:57:00,
2013-03-22 16:00:00,30.0,21.8,30.02,WSW,240,3.0,10.5,71,0.00,,,0.00,0.00,VWS V14.01,2013-03-22 20:00:00,
2013-03-22 16:02:00,31.9,22.5,30.01,West,261,3.0,4.5,68,0.00,,,0.00,0.00,VWS V14.01,2013-03-22 20:02:00,
2013-03-22 16:07:00,32.1,22.8,30.01,West,266,1.5,7.5,68,0.00,,,0.00,0.00,VWS V14.01,2013-03-22 20:07:00,
2013-03-22 16:12:00,32.5,22.8,30.01,WSW,238,9.0,10.5,67,0.00,,,0.00,0.00,VWS V14.01,2013-03-22 20:12:00,
2013-03-22 16:15:00,30.3,22.4,30.02,West,267,1.5,13.5,72,0.00,,,0.00,0.00,VWS V14.01,2013-03-22 20:15:00,
2013-03-22 16:17:00,32.5,22.4,30.01,NW,307,3.0,3.0,66,0.00,,,0.00,0.00,VWS V14.01,2013-03-22 20:17:00,
2013-03-22 16:22:00,32.8,22.7,30.01,NNW,338,1.5,4.5,66,0.00,,,0.00,0.00,VWS V14.01,2013-03-22 20:22:00,
2013-03-22 16:27:00,33.0,22.9,30.01,SW,233,1.5,6.0,66,0.00,,,0.00,0.00,VWS V14.01,2013-03-22 20:27:00,
2013-03-22 16:30:00,31.0,22.7,30.02,WSW,246,4.5,12.0,71,0.00,,,0.00,0.00,VWS V14.01,2013-03-22 20:30:00,
2013-03-22 16:32:00,33.0,22.5,30.01,WSW,257,1.5,1.5,65,0.00,,,0.00,0.00,VWS V14.01,2013-03-22 20:32:00,
2013-03-22 16:37:00,33.4,22.9,30.01,NW,309,3.0,6.0,65,0.00,,,0.00,0.00,VWS V14.01,2013-03-22 20:37:00,
2013-03-22 16:42:00,33.4,22.9,30.00,West,268,1.5,6.0,65,0.00,,,0.00,0.00,VWS V14.01,2013-03-22 20:42:00,
2013-03-22 16:45:00,31.1,22.5,30.01,West,259,1.5,10.5,70,0.00,,,0.00,0.00,VWS V14.01,2013-03-22 20:45:00,
2013-03-22 16:47:00,33.5,23.4,30.00,WNW,287,1.5,3.0,66,0.00,,,0.00,0.00,VWS V14.01,2013-03-22 20:47:00,
2013-03-22 16:52:00,33.6,23.5,30.00,West,262,0.0,4.5,66,0.00,,,0.00,0.00,VWS V14.01,2013-03-22 20:52:00,
2013-03-22 16:57:00,33.9,23.4,30.00,NW,323,3.0,4.5,65,0.00,,,0.00,0.00,VWS V14.01,2013-03-22 20:57:00,
2013-03-22 17:00:00,31.9,22.5,30.01,West,259,1.5,6.0,68,0.00,,,0.00,0.00,VWS V14.01,2013-03-22 21:00:00,
2013-03-22 17:02:00,33.6,23.8,30.00,WSW,250,3.0,4.5,67,0.00,,,0.00,0.00,VWS V14.01,2013-03-22 21:02:00,
2013-03-22 17:07:00,33.4,23.3,30.00,WSW,258,6.0,6.0,66,0.00,,,0.00,0.00,VWS V14.01,2013-03-22 21:07:00,
2013-03-22 17:12:00,33.3,22.8,30.01,WSW,241,3.0,6.0,65,0.00,,,0.00,0.00,VWS V14.01,2013-03-22 21:12:00,
2013-03-22 17:15:00,32.5,22.4,30.01,West,280,3.0,10.5,66,0.00,,,0.00,0.00,VWS V14.01,2013-03-22 21:15:00,
2013-03-22 17:17:00,33.1,23.4,30.01,WSW,253,0.0,3.0,67,0.00,,,0.00,0.00,VWS V14.01,2013-03-22 21:17:00,
2013-03-22 17:22:00,33.3,22.8,30.00,SW,229,3.0,4.5,65,0.00,,,0.00,0.00,VWS V14.01,2013-03-22 21:22:00,
2013-03-22 17:27:00,33.5,23.0,30.01,WSW,257,1.5,6.0,65,0.00,,,0.00,0.00,VWS V14.01,2013-03-22 21:27:00,
2013-03-22 17:30:00,33.0,22.5,30.01,West,270,1.5,6.0,65,0.00,,,0.00,0.00,VWS V14.01,2013-03-22 21:30:00,
2013-03-22 17:32:00,33.5,22.3,30.00,West,264,1.5,7.5,63,0.00,,,0.00,0.00,VWS V14.01,2013-03-22 21:32:00,
2013-03-22 17:37:00,33.6,22.7,30.01,West,262,1.5,7.5,64,0.00,,,0.00,0.00,VWS V14.01,2013-03-22 21:37:00,
2013-03-22 17:42:00,33.6,22.0,30.00,WSW,250,6.0,9.0,62,0.00,,,0.00,0.00,VWS V14.01,2013-03-22 21:42:00,
2013-03-22 17:45:00,33.5,23.0,30.00,West,261,1.5,6.0,65,0.00,,,0.00,0.00,VWS V14.01,2013-03-22 21:45:00,
2013-03-22 17:47:00,33.6,22.0,30.00,WSW,252,4.5,4.5,62,0.00,,,0.00,0.00,VWS V14.01,2013-03-22 21:47:00,
2013-03-22 17:52:00,33.6,22.0,30.00,West,262,1.5,9.0,62,0.00,,,0.00,0.00,VWS V14.01,2013-03-22 21:52:00,
2013-03-22 17:57:00,33.8,22.2,30.00,SW,226,4.5,9.0,62,0.00,,,0.00,0.00,VWS V14.01,2013-03-22 21:57:00,
2013-03-22 18:00:00,33.7,23.2,30.00,WNW,290,1.5,4.5,65,0.00,,,0.00,0.00,VWS V14.01,2013-03-22 22:00:00,
2013-03-22 18:02:00,34.1,22.1,30.00,SW,231,6.0,6.0,61,0.00,,,0.00,0.00,VWS V14.01,2013-03-22 22:02:00,
2013-03-22 18:07:00,34.0,22.0,30.00,West,274,0.0,6.0,61,0.00,,,0.00,0.00,VWS V14.01,2013-03-22 22:07:00,
2013-03-22 18:12:00,33.9,21.9,30.00,West,276,0.0,6.0,61,0.00,,,0.00,0.00,VWS V14.01,2013-03-22 22:12:00,
2013-03-22 18:15:00,33.1,23.0,30.00,WSW,257,0.0,10.5,66,0.00,,,0.00,0.00,VWS V14.01,2013-03-22 22:15:00,
2013-03-22 18:17:00,34.0,22.0,30.00,NNE,25,3.0,3.0,61,0.00,,,0.00,0.00,VWS V14.01,2013-03-22 22:17:00,
2013-03-22 18:22:00,34.3,21.9,30.00,WSW,257,0.0,3.0,60,0.00,,,0.00,0.00,VWS V14.01,2013-03-22 22:22:00,
2013-03-22 18:27:00,34.0,21.6,30.00,WSW,251,1.5,3.0,60,0.00,,,0.00,0.00,VWS V14.01,2013-03-22 22:27:00,
2013-03-22 18:30:00,33.5,22.3,30.01,West,262,4.5,6.0,63,0.00,,,0.00,0.00,VWS V14.01,2013-03-22 22:30:00,
2013-03-22 18:32:00,33.6,21.6,30.01,West,272,1.5,3.0,61,0.00,,,0.00,0.00,VWS V14.01,2013-03-22 22:32:00,
2013-03-22 18:37:00,33.8,21.8,30.01,West,274,0.0,3.0,61,0.00,,,0.00,0.00,VWS V14.01,2013-03-22 22:37:00,
2013-03-22 18:42:00,33.8,21.4,30.01,WSW,241,0.0,6.0,60,0.00,,,0.00,0.00,VWS V14.01,2013-03-22 22:42:00,
2013-03-22 18:45:00,33.6,22.7,30.00,West,281,1.5,9.0,64,0.00,,,0.00,0.00,VWS V14.01,2013-03-22 22:45:00,
2013-03-22 18:47:00,33.7,21.3,30.01,WSW,256,0.0,4.5,60,0.00,,,0.00,0.00,VWS V14.01,2013-03-22 22:47:00,
2013-03-22 18:52:00,33.3,21.3,30.01,WSW,238,0.0,4.5,61,0.00,,,0.00,0.00,VWS V14.01,2013-03-22 22:52:00,
2013-03-22 18:57:00,33.0,21.4,30.01,SW,226,0.0,4.5,62,0.00,,,0.00,0.00,VWS V14.01,2013-03-22 22:57:00,
2013-03-22 19:00:00,34.1,22.1,30.00,WSW,253,1.5,9.0,61,0.00,,,0.00,0.00,VWS V14.01,2013-03-22 23:00:00,
2013-03-22 19:02:00,32.7,21.5,30.01,SSW,210,0.0,0.0,63,0.01,,,0.01,0.00,VWS V14.01,2013-03-22 23:02:00,
2013-03-22 19:07:00,32.4,21.2,30.01,SW,231,0.0,1.5,63,0.01,,,0.01,0.00,VWS V14.01,2013-03-22 23:07:00,
2013-03-22 19:12:00,32.2,21.0,30.01,WSW,245,0.0,1.5,63,0.01,,,0.01,0.00,VWS V14.01,2013-03-22 23:12:00,
2013-03-22 19:15:00,34.0,22.4,30.00,SW,223,1.5,6.0,62,0.00,,,0.00,0.00,VWS V14.01,2013-03-22 23:15:00,
2013-03-22 19:17:00,31.9,20.8,30.01,WSW,245,0.0,1.5,63,0.01,,,0.01,0.00,VWS V14.01,2013-03-22 23:17:00,
2013-03-22 19:22:00,31.7,20.6,30.01,SW,221,1.5,4.5,63,0.01,,,0.01,0.00,VWS V14.01,2013-03-22 23:22:00,
2013-03-22 19:27:00,31.4,20.6,30.01,SSW,195,0.0,4.5,64,0.01,,,0.01,0.00,VWS V14.01,2013-03-22 23:27:00,
2013-03-22 19:30:00,33.6,21.6,30.01,SW,231,0.0,3.0,61,0.00,,,0.00,0.00,VWS V14.01,2013-03-22 23:30:00,
2013-03-22 19:32:00,31.2,20.8,30.01,SSW,195,0.0,0.0,65,0.01,,,0.01,0.00,VWS V14.01,2013-03-22 23:32:00,
2013-03-22 19:37:00,30.9,20.5,30.01,SSW,195,0.0,0.0,65,0.01,,,0.01,0.00,VWS V14.01,2013-03-22 23:37:00,
2013-03-22 19:42:00,30.6,20.6,30.02,SSW,195,0.0,0.0,66,0.01,,,0.01,0.00,VWS V14.01,2013-03-22 23:42:00,
2013-03-22 19:45:00,33.8,21.4,30.01,SW,233,3.0,6.0,60,0.00,,,0.00,0.00,VWS V14.01,2013-03-22 23:45:00,
2013-03-22 19:47:00,30.3,20.7,30.02,SSW,193,0.0,0.0,67,0.01,,,0.01,0.00,VWS V14.01,2013-03-22 23:47:00,
2013-03-22 19:52:00,29.9,20.6,30.02,SSW,193,0.0,0.0,68,0.01,,,0.01,0.00,VWS V14.01,2013-03-22 23:52:00,
2013-03-22 19:57:00,29.5,20.6,30.02,SSW,192,0.0,0.0,69,0.01,,,0.01,0.00,VWS V14.01,2013-03-22 23:57:00,
2013-03-22 20:00:00,32.7,21.5,30.01,SSW,208,0.0,4.5,63,0.01,,,0.01,0.00,VWS V14.01,2013-03-23 00:00:00,
2013-03-22 20:02:00,29.2,20.3,30.01,SSW,193,0.0,0.0,69,0.00,,,0.01,0.00,VWS V14.01,2013-03-23 00:02:00,
2013-03-22 20:07:00,29.0,20.5,30.02,SSW,193,0.0,0.0,70,0.00,,,0.01,0.00,VWS V14.01,2013-03-23 00:07:00,
2013-03-22 20:12:00,28.7,20.2,30.01,SSW,193,0.0,0.0,70,0.00,,,0.01,0.00,VWS V14.01,2013-03-23 00:12:00,
2013-03-22 20:15:00,32.0,20.9,30.01,WSW,245,0.0,1.5,63,0.01,,,0.01,0.00,VWS V14.01,2013-03-23 00:15:00,
2013-03-22 20:17:00,28.5,20.3,30.02,SSW,193,0.0,0.0,71,0.00,,,0.01,0.00,VWS V14.01,2013-03-23 00:17:00,
2013-03-22 20:22:00,28.3,20.1,30.02,SSW,193,0.0,0.0,71,0.00,,,0.01,0.00,VWS V14.01,2013-03-23 00:22:00,
2013-03-22 20:27:00,28.3,20.4,30.02,SSW,193,0.0,0.0,72,0.00,,,0.01,0.00,VWS V14.01,2013-03-23 00:27:00,
2013-03-22 20:30:00,31.2,20.8,30.01,SSW,195,0.0,4.5,65,0.01,,,0.01,0.00,VWS V14.01,2013-03-23 00:30:00,
2013-03-22 20:32:00,28.1,20.2,30.02,SSW,193,0.0,0.0,72,0.00,,,0.01,0.00,VWS V14.01,2013-03-23 00:32:00,
2013-03-22 20:37:00,28.0,20.2,30.02,SSW,193,0.0,0.0,72,0.00,,,0.01,0.00,VWS V14.01,2013-03-23 00:37:00,
2013-03-22 20:42:00,28.0,20.2,30.02,SSW,193,0.0,0.0,72,0.00,,,0.01,0.00,VWS V14.01,2013-03-23 00:42:00,
2013-03-22 20:45:00,30.4,20.4,30.02,SSW,193,0.0,0.0,66,0.01,,,0.01,0.00,VWS V14.01,2013-03-23 00:45:00,
2013-03-22 20:47:00,28.0,20.2,30.02,SSW,193,0.0,0.0,72,0.00,,,0.01,0.00,VWS V14.01,2013-03-23 00:47:00,
2013-03-22 20:52:00,27.8,20.0,30.02,SSW,193,0.0,0.0,72,0.00,,,0.01,0.00,VWS V14.01,2013-03-23 00:52:00,
2013-03-22 20:57:00,27.7,20.2,30.02,SSW,193,0.0,0.0,73,0.00,,,0.01,0.00,VWS V14.01,2013-03-23 00:57:00,
2013-03-22 21:00:00,29.2,20.3,30.01,SSW,192,0.0,0.0,69,0.01,,,0.01,0.00,VWS V14.01,2013-03-23 01:00:00,
2013-03-22 21:02:00,27.5,20.3,30.02,SSW,193,0.0,0.0,74,0.00,,,0.01,0.00,VWS V14.01,2013-03-23 01:02:00,
2013-03-22 21:07:00,27.3,20.4,30.03,SSW,193,0.0,0.0,75,0.00,,,0.01,0.00,VWS V14.01,2013-03-23 01:07:00,
2013-03-22 21:12:00,27.1,20.2,30.03,SSW,193,0.0,0.0,75,0.00,,,0.01,0.00,VWS V14.01,2013-03-23 01:12:00,
2013-03-22 21:15:00,28.5,20.3,30.02,SSW,193,0.0,0.0,71,0.00,,,0.01,0.00,VWS V14.01,2013-03-23 01:15:00,
2013-03-22 21:17:00,27.0,20.5,30.03,SSW,193,0.0,0.0,76,0.00,,,0.01,0.00,VWS V14.01,2013-03-23 01:17:00,
2013-03-22 21:22:00,26.8,20.6,30.03,SSW,193,0.0,0.0,77,0.00,,,0.01,0.00,VWS V14.01,2013-03-23 01:22:00,
2013-03-22 21:27:00,26.5,20.6,30.02,SSW,193,0.0,0.0,78,0.00,,,0.01,0.00,VWS V14.01,2013-03-23 01:27:00,
2013-03-22 21:30:00,28.2,20.4,30.02,SSW,193,0.0,0.0,72,0.00,,,0.01,0.00,VWS V14.01,2013-03-23 01:30:00,
2013-03-22 21:32:00,26.3,20.4,30.03,SSW,193,0.0,0.0,78,0.00,,,0.01,0.00,VWS V14.01,2013-03-23 01:32:00,
2013-03-22 21:37:00,26.2,20.3,30.03,SSW,193,0.0,0.0,78,0.00,,,0.01,0.00,VWS V14.01,2013-03-23 01:37:00,
2013-03-22 21:42:00,26.2,20.3,30.03,SSW,193,0.0,0.0,78,0.00,,,0.01,0.00,VWS V14.01,2013-03-23 01:42:00,
2013-03-22 21:45:00,28.0,20.2,30.02,SSW,193,0.0,0.0,72,0.00,,,0.01,0.00,VWS V14.01,2013-03-23 01:45:00,
2013-03-22 21:47:00,26.0,20.4,30.03,SSW,192,0.0,0.0,79,0.00,,,0.01,0.00,VWS V14.01,2013-03-23 01:47:00,
2013-03-22 21:52:00,25.9,20.3,30.03,SSW,193,0.0,0.0,79,0.00,,,0.01,0.00,VWS V14.01,2013-03-23 01:52:00,
2013-03-22 21:57:00,25.7,20.4,30.03,SSW,193,0.0,0.0,80,0.00,,,0.01,0.00,VWS V14.01,2013-03-23 01:57:00,
2013-03-22 22:00:00,27.5,20.3,30.02,SSW,193,0.0,0.0,74,0.00,,,0.01,0.00,VWS V14.01,2013-03-23 02:00:00,
2013-03-22 22:02:00,25.7,20.4,30.03,SSW,193,0.0,0.0,80,0.00,,,0.01,0.00,VWS V14.01,2013-03-23 02:02:00,
2013-03-22 22:07:00,25.7,20.4,30.03,SSW,193,0.0,0.0,80,0.00,,,0.01,0.00,VWS V14.01,2013-03-23 02:07:00,
2013-03-22 22:12:00,25.6,20.3,30.03,SSW,193,0.0,0.0,80,0.00,,,0.01,0.00,VWS V14.01,2013-03-23 02:12:00,
2013-03-22 22:15:00,27.0,20.5,30.02,SSW,193,0.0,0.0,76,0.00,,,0.01,0.00,VWS V14.01,2013-03-23 02:15:00,
2013-03-22 22:17:00,25.7,20.4,30.03,SSW,193,0.0,0.0,80,0.00,,,0.01,0.00,VWS V14.01,2013-03-23 02:17:00,
2013-03-22 22:22:00,25.8,20.5,30.02,SSW,193,0.0,0.0,80,0.00,,,0.01,0.00,VWS V14.01,2013-03-23 02:22:00,
2013-03-22 22:27:00,26.0,20.4,30.03,SSW,193,0.0,0.0,79,0.00,,,0.01,0.00,VWS V14.01,2013-03-23 02:27:00,
2013-03-22 22:30:00,26.3,20.4,30.03,SSW,193,0.0,0.0,78,0.00,,,0.01,0.00,VWS V14.01,2013-03-23 02:30:00,
2013-03-22 22:32:00,25.9,20.3,30.02,SSW,193,0.0,0.0,79,0.00,,,0.01,0.00,VWS V14.01,2013-03-23 02:32:00,
2013-03-22 22:37:00,25.9,20.6,30.03,SSW,193,0.0,0.0,80,0.00,,,0.01,0.00,VWS V14.01,2013-03-23 02:37:00,
2013-03-22 22:42:00,25.8,20.5,30.03,SSW,193,0.0,0.0,80,0.00,,,0.01,0.00,VWS V14.01,2013-03-23 02:42:00,
2013-03-22 22:45:00,26.1,20.5,30.03,SSW,193,0.0,0.0,79,0.00,,,0.01,0.00,VWS V14.01,2013-03-23 02:45:00,
2013-03-22 22:47:00,25.9,20.6,30.02,SSW,193,0.0,0.0,80,0.00,,,0.01,0.00,VWS V14.01,2013-03-23 02:47:00,
2013-03-22 22:52:00,25.9,20.3,30.02,SSW,193,0.0,0.0,79,0.00,,,0.01,0.00,VWS V14.01,2013-03-23 02:52:00,
2013-03-22 22:57:00,25.9,20.6,30.03,SSW,193,0.0,0.0,80,0.00,,,0.01,0.00,VWS V14.01,2013-03-23 02:57:00,
2013-03-22 23:00:00,25.7,20.4,30.03,SSW,193,0.0,0.0,80,0.00,,,0.01,0.00,VWS V14.01,2013-03-23 03:00:00,
2013-03-22 23:02:00,25.7,20.4,30.03,SSW,193,0.0,0.0,80,0.00,,,0.01,0.00,VWS V14.01,2013-03-23 03:02:00,
2013-03-22 23:07:00,25.5,20.2,30.03,SSW,192,0.0,0.0,80,0.00,,,0.01,0.00,VWS V14.01,2013-03-23 03:07:00,
2013-03-22 23:12:00,25.5,20.2,30.03,SSW,193,0.0,0.0,80,0.00,,,0.01,0.00,VWS V14.01,2013-03-23 03:12:00,
2013-03-22 23:15:00,25.7,20.4,30.02,SSW,193,0.0,0.0,80,0.00,,,0.01,0.00,VWS V14.01,2013-03-23 03:15:00,
2013-03-22 23:17:00,25.4,20.4,30.03,South,191,0.0,0.0,81,0.00,,,0.01,0.00,VWS V14.01,2013-03-23 03:17:00,
2013-03-22 23:22:00,25.3,20.3,30.03,South,191,0.0,0.0,81,0.00,,,0.01,0.00,VWS V14.01,2013-03-23 03:22:00,
2013-03-22 23:27:00,25.3,20.3,30.03,South,191,0.0,0.0,81,0.00,,,0.01,0.00,VWS V14.01,2013-03-23 03:27:00,
2013-03-22 23:30:00,26.0,20.4,30.03,SSW,193,0.0,0.0,79,0.00,,,0.01,0.00,VWS V14.01,2013-03-23 03:30:00,
2013-03-22 23:32:00,25.1,20.4,30.03,South,191,0.0,0.0,82,0.00,,,0.01,0.00,VWS V14.01,2013-03-23 03:32:00,
2013-03-22 23:37:00,25.2,20.5,30.03,South,191,0.0,0.0,82,0.00,,,0.01,0.00,VWS V14.01,2013-03-23 03:37:00,
2013-03-22 23:42:00,25.5,20.5,30.03,South,191,0.0,0.0,81,0.00,,,0.01,0.00,VWS V14.01,2013-03-23 03:42:00,
2013-03-22 23:45:00,25.9,20.6,30.03,SSW,193,0.0,0.0,80,0.00,,,0.01,0.00,VWS V14.01,2013-03-23 03:45:00,
2013-03-22 23:47:00,25.6,20.9,30.03,SE,136,0.0,0.0,82,0.00,,,0.01,0.00,VWS V14.01,2013-03-23 03:47:00,
2013-03-22 23:52:00,26.0,21.0,30.03,SE,136,0.0,1.5,81,0.00,,,0.01,0.00,VWS V14.01,2013-03-23 03:52:00,
2013-03-22 23:57:00,26.0,21.0,30.03,ESE,122,1.5,1.5,81,0.00,,,0.01,0.00,VWS V14.01,2013-03-23 03:57:00,